sensor_id;sensor_type;location;lat;lon;timestamp;P1;durP1;ratioP1;P2;durP2;ratioP2
59476;SDS011;73078;49.762;6.594;2024-03-06T00:00:49;6.88;;;4.32;;
59476;SDS011;73078;49.762;6.594;2024-03-06T00:03:15;10.20;;;5.57;;
59476;SDS011;73078;49.762;6.594;2024-03-06T00:05:41;8.10;;;5.40;;
59476;SDS011;73078;49.762;6.594;2024-03-06T00:08:08;8.32;;;5.07;;
59476;SDS011;73078;49.762;6.594;2024-03-06T00:10:34;7.97;;;5.13;;
59476;SDS011;73078;49.762;6.594;2024-03-06T00:13:01;8.48;;;4.63;;
59476;SDS011;73078;49.762;6.594;2024-03-06T00:15:27;6.22;;;4.45;;
59476;SDS011;73078;49.762;6.594;2024-03-06T00:17:53;6.68;;;4.43;;
59476;SDS011;73078;49.762;6.594;2024-03-06T00:20:19;7.65;;;4.65;;
59476;SDS011;73078;49.762;6.594;2024-03-06T00:22:45;5.70;;;4.07;;
59476;SDS011;73078;49.762;6.594;2024-03-06T00:25:11;7.50;;;4.85;;
59476;SDS011;73078;49.762;6.594;2024-03-06T00:27:37;7.15;;;4.50;;
59476;SDS011;73078;49.762;6.594;2024-03-06T00:30:06;6.93;;;4.43;;
59476;SDS011;73078;49.762;6.594;2024-03-06T00:32:32;6.97;;;4.80;;
59476;SDS011;73078;49.762;6.594;2024-03-06T00:34:58;7.47;;;4.70;;
59476;SDS011;73078;49.762;6.594;2024-03-06T00:37:24;7.32;;;4.22;;
59476;SDS011;73078;49.762;6.594;2024-03-06T00:39:50;6.88;;;4.30;;
59476;SDS011;73078;49.762;6.594;2024-03-06T00:42:17;7.40;;;5.18;;
59476;SDS011;73078;49.762;6.594;2024-03-06T00:44:43;8.55;;;4.55;;
59476;SDS011;73078;49.762;6.594;2024-03-06T00:47:08;9.45;;;4.25;;
59476;SDS011;73078;49.762;6.594;2024-03-06T00:49:34;7.50;;;4.20;;
59476;SDS011;73078;49.762;6.594;2024-03-06T00:52:00;9.48;;;4.72;;
59476;SDS011;73078;49.762;6.594;2024-03-06T00:54:26;6.93;;;4.55;;
59476;SDS011;73078;49.762;6.594;2024-03-06T00:56:52;8.82;;;5.00;;
59476;SDS011;73078;49.762;6.594;2024-03-06T00:59:18;9.52;;;5.10;;
59476;SDS011;73078;49.762;6.594;2024-03-06T01:01:44;8.68;;;4.88;;
59476;SDS011;73078;49.762;6.594;2024-03-06T01:04:10;10.18;;;5.72;;
59476;SDS011;73078;49.762;6.594;2024-03-06T01:06:36;8.68;;;5.05;;
59476;SDS011;73078;49.762;6.594;2024-03-06T01:09:02;8.70;;;5.15;;
59476;SDS011;73078;49.762;6.594;2024-03-06T01:11:28;10.82;;;5.55;;
59476;SDS011;73078;49.762;6.594;2024-03-06T01:13:54;8.55;;;5.28;;
59476;SDS011;73078;49.762;6.594;2024-03-06T01:16:20;9.50;;;5.60;;
59476;SDS011;73078;49.762;6.594;2024-03-06T01:18:46;9.40;;;6.20;;
59476;SDS011;73078;49.762;6.594;2024-03-06T01:21:15;12.27;;;6.03;;
59476;SDS011;73078;49.762;6.594;2024-03-06T01:23:41;10.18;;;5.95;;
59476;SDS011;73078;49.762;6.594;2024-03-06T01:26:08;9.88;;;5.65;;
59476;SDS011;73078;49.762;6.594;2024-03-06T01:28:34;10.90;;;6.70;;
59476;SDS011;73078;49.762;6.594;2024-03-06T01:31:00;10.05;;;6.03;;
59476;SDS011;73078;49.762;6.594;2024-03-06T01:33:26;12.15;;;6.10;;
59476;SDS011;73078;49.762;6.594;2024-03-06T01:35:52;9.68;;;6.07;;
59476;SDS011;73078;49.762;6.594;2024-03-06T01:38:18;11.05;;;6.68;;
59476;SDS011;73078;49.762;6.594;2024-03-06T01:40:44;11.50;;;6.47;;
59476;SDS011;73078;49.762;6.594;2024-03-06T01:43:18;8.95;;;6.53;;
59476;SDS011;73078;49.762;6.594;2024-03-06T01:45:45;13.93;;;7.50;;
59476;SDS011;73078;49.762;6.594;2024-03-06T01:48:12;15.20;;;6.60;;
59476;SDS011;73078;49.762;6.594;2024-03-06T01:50:39;11.93;;;7.05;;
59476;SDS011;73078;49.762;6.594;2024-03-06T01:53:05;13.95;;;7.30;;
59476;SDS011;73078;49.762;6.594;2024-03-06T01:55:31;11.93;;;7.07;;
59476;SDS011;73078;49.762;6.594;2024-03-06T01:57:57;16.33;;;7.82;;
59476;SDS011;73078;49.762;6.594;2024-03-06T02:00:23;11.57;;;7.00;;
59476;SDS011;73078;49.762;6.594;2024-03-06T02:02:49;11.43;;;7.13;;
59476;SDS011;73078;49.762;6.594;2024-03-06T02:05:15;9.38;;;6.15;;
59476;SDS011;73078;49.762;6.594;2024-03-06T02:07:41;12.05;;;7.70;;
59476;SDS011;73078;49.762;6.594;2024-03-06T02:10:08;10.00;;;6.82;;
59476;SDS011;73078;49.762;6.594;2024-03-06T02:12:35;9.65;;;6.72;;
59476;SDS011;73078;49.762;6.594;2024-03-06T02:15:02;10.68;;;6.75;;
59476;SDS011;73078;49.762;6.594;2024-03-06T02:17:28;12.73;;;7.10;;
59476;SDS011;73078;49.762;6.594;2024-03-06T02:19:55;11.35;;;6.57;;
59476;SDS011;73078;49.762;6.594;2024-03-06T02:22:23;10.77;;;6.35;;
59476;SDS011;73078;49.762;6.594;2024-03-06T02:24:49;14.82;;;9.18;;
59476;SDS011;73078;49.762;6.594;2024-03-06T02:27:15;12.27;;;7.60;;
59476;SDS011;73078;49.762;6.594;2024-03-06T02:29:41;11.63;;;7.78;;
59476;SDS011;73078;49.762;6.594;2024-03-06T02:32:08;16.13;;;9.27;;
59476;SDS011;73078;49.762;6.594;2024-03-06T02:34:34;17.33;;;10.70;;
59476;SDS011;73078;49.762;6.594;2024-03-06T02:37:00;15.48;;;9.23;;
59476;SDS011;73078;49.762;6.594;2024-03-06T02:39:26;13.88;;;8.07;;
59476;SDS011;73078;49.762;6.594;2024-03-06T02:41:52;15.80;;;9.25;;
59476;SDS011;73078;49.762;6.594;2024-03-06T02:44:18;14.80;;;8.63;;
59476;SDS011;73078;49.762;6.594;2024-03-06T02:46:48;13.88;;;8.40;;
59476;SDS011;73078;49.762;6.594;2024-03-06T02:49:17;13.48;;;8.45;;
59476;SDS011;73078;49.762;6.594;2024-03-06T02:51:44;15.65;;;8.52;;
59476;SDS011;73078;49.762;6.594;2024-03-06T02:54:10;14.45;;;9.52;;
59476;SDS011;73078;49.762;6.594;2024-03-06T02:56:36;18.77;;;10.38;;
59476;SDS011;73078;49.762;6.594;2024-03-06T02:59:02;15.32;;;10.77;;
59476;SDS011;73078;49.762;6.594;2024-03-06T03:01:28;20.00;;;11.00;;
59476;SDS011;73078;49.762;6.594;2024-03-06T03:03:55;19.73;;;11.90;;
59476;SDS011;73078;49.762;6.594;2024-03-06T03:06:21;19.08;;;11.43;;
59476;SDS011;73078;49.762;6.594;2024-03-06T03:08:49;20.60;;;12.15;;
59476;SDS011;73078;49.762;6.594;2024-03-06T03:11:15;25.45;;;12.32;;
59476;SDS011;73078;49.762;6.594;2024-03-06T03:13:41;16.10;;;11.63;;
59476;SDS011;73078;49.762;6.594;2024-03-06T03:16:14;18.10;;;11.73;;
59476;SDS011;73078;49.762;6.594;2024-03-06T03:18:42;19.67;;;11.85;;
59476;SDS011;73078;49.762;6.594;2024-03-06T03:21:08;24.48;;;13.50;;
59476;SDS011;73078;49.762;6.594;2024-03-06T03:23:37;21.30;;;12.45;;
59476;SDS011;73078;49.762;6.594;2024-03-06T03:26:04;20.20;;;11.70;;
59476;SDS011;73078;49.762;6.594;2024-03-06T03:28:30;27.02;;;13.60;;
59476;SDS011;73078;49.762;6.594;2024-03-06T03:30:57;27.10;;;14.25;;
59476;SDS011;73078;49.762;6.594;2024-03-06T03:33:23;25.10;;;14.43;;
59476;SDS011;73078;49.762;6.594;2024-03-06T03:35:49;24.33;;;12.55;;
59476;SDS011;73078;49.762;6.594;2024-03-06T03:38:15;26.55;;;13.73;;
59476;SDS011;73078;49.762;6.594;2024-03-06T03:40:42;28.38;;;14.70;;
59476;SDS011;73078;49.762;6.594;2024-03-06T03:43:08;25.80;;;15.68;;
59476;SDS011;73078;49.762;6.594;2024-03-06T03:45:34;33.40;;;16.00;;
59476;SDS011;73078;49.762;6.594;2024-03-06T03:48:04;27.58;;;13.90;;
59476;SDS011;73078;49.762;6.594;2024-03-06T03:50:30;34.83;;;16.23;;
59476;SDS011;73078;49.762;6.594;2024-03-06T03:52:57;31.88;;;16.17;;
59476;SDS011;73078;49.762;6.594;2024-03-06T03:55:25;30.73;;;14.43;;
59476;SDS011;73078;49.762;6.594;2024-03-06T03:57:51;27.45;;;14.52;;
59476;SDS011;73078;49.762;6.594;2024-03-06T04:00:18;28.05;;;14.15;;
59476;SDS011;73078;49.762;6.594;2024-03-06T04:02:44;29.00;;;15.27;;
59476;SDS011;73078;49.762;6.594;2024-03-06T04:05:10;23.33;;;13.82;;
59476;SDS011;73078;49.762;6.594;2024-03-06T04:07:36;28.90;;;14.52;;
59476;SDS011;73078;49.762;6.594;2024-03-06T04:10:03;31.48;;;16.33;;
59476;SDS011;73078;49.762;6.594;2024-03-06T04:12:29;27.83;;;14.13;;
59476;SDS011;73078;49.762;6.594;2024-03-06T04:14:55;29.75;;;14.45;;
59476;SDS011;73078;49.762;6.594;2024-03-06T04:17:23;30.90;;;15.65;;
59476;SDS011;73078;49.762;6.594;2024-03-06T04:19:50;30.70;;;14.90;;
59476;SDS011;73078;49.762;6.594;2024-03-06T04:22:21;30.67;;;15.10;;
59476;SDS011;73078;49.762;6.594;2024-03-06T04:24:47;31.10;;;16.13;;
59476;SDS011;73078;49.762;6.594;2024-03-06T04:27:13;28.55;;;15.82;;
59476;SDS011;73078;49.762;6.594;2024-03-06T04:29:40;25.55;;;14.20;;
59476;SDS011;73078;49.762;6.594;2024-03-06T04:32:06;29.63;;;15.10;;
59476;SDS011;73078;49.762;6.594;2024-03-06T04:34:32;28.83;;;15.55;;
59476;SDS011;73078;49.762;6.594;2024-03-06T04:36:58;26.55;;;15.27;;
59476;SDS011;73078;49.762;6.594;2024-03-06T04:39:25;26.45;;;15.02;;
59476;SDS011;73078;49.762;6.594;2024-03-06T04:41:51;28.50;;;14.05;;
59476;SDS011;73078;49.762;6.594;2024-03-06T04:44:17;27.45;;;12.93;;
59476;SDS011;73078;49.762;6.594;2024-03-06T04:46:43;37.88;;;14.23;;
59476;SDS011;73078;49.762;6.594;2024-03-06T04:49:09;38.60;;;14.68;;
59476;SDS011;73078;49.762;6.594;2024-03-06T04:51:35;28.33;;;14.18;;
59476;SDS011;73078;49.762;6.594;2024-03-06T04:54:01;24.85;;;14.70;;
59476;SDS011;73078;49.762;6.594;2024-03-06T04:56:28;27.70;;;13.85;;
59476;SDS011;73078;49.762;6.594;2024-03-06T04:58:54;27.52;;;14.65;;
59476;SDS011;73078;49.762;6.594;2024-03-06T05:01:20;26.63;;;13.38;;
59476;SDS011;73078;49.762;6.594;2024-03-06T05:03:46;29.63;;;16.17;;
59476;SDS011;73078;49.762;6.594;2024-03-06T05:06:13;29.92;;;15.52;;
59476;SDS011;73078;49.762;6.594;2024-03-06T05:08:39;27.00;;;14.23;;
59476;SDS011;73078;49.762;6.594;2024-03-06T05:11:05;55.67;;;15.90;;
59476;SDS011;73078;49.762;6.594;2024-03-06T05:13:31;53.63;;;14.43;;
59476;SDS011;73078;49.762;6.594;2024-03-06T05:15:57;31.75;;;13.57;;
59476;SDS011;73078;49.762;6.594;2024-03-06T05:18:23;26.80;;;13.18;;
59476;SDS011;73078;49.762;6.594;2024-03-06T05:20:49;29.45;;;13.48;;
59476;SDS011;73078;49.762;6.594;2024-03-06T05:23:15;60.90;;;13.07;;
59476;SDS011;73078;49.762;6.594;2024-03-06T05:25:42;29.42;;;11.55;;
59476;SDS011;73078;49.762;6.594;2024-03-06T05:28:08;33.75;;;11.30;;
59476;SDS011;73078;49.762;6.594;2024-03-06T05:30:34;32.50;;;12.35;;
59476;SDS011;73078;49.762;6.594;2024-03-06T05:33:00;22.92;;;11.70;;
59476;SDS011;73078;49.762;6.594;2024-03-06T05:35:26;28.50;;;12.80;;
59476;SDS011;73078;49.762;6.594;2024-03-06T05:37:52;31.48;;;12.85;;
59476;SDS011;73078;49.762;6.594;2024-03-06T05:40:18;51.38;;;13.93;;
59476;SDS011;73078;49.762;6.594;2024-03-06T05:42:44;33.72;;;13.05;;
59476;SDS011;73078;49.762;6.594;2024-03-06T05:45:10;37.08;;;13.55;;
59476;SDS011;73078;49.762;6.594;2024-03-06T05:47:37;50.90;;;13.75;;
59476;SDS011;73078;49.762;6.594;2024-03-06T05:50:03;29.45;;;12.60;;
59476;SDS011;73078;49.762;6.594;2024-03-06T05:52:30;58.05;;;13.48;;
59476;SDS011;73078;49.762;6.594;2024-03-06T05:54:56;28.13;;;12.80;;
59476;SDS011;73078;49.762;6.594;2024-03-06T05:57:22;33.10;;;13.35;;
59476;SDS011;73078;49.762;6.594;2024-03-06T05:59:48;40.55;;;14.15;;
59476;SDS011;73078;49.762;6.594;2024-03-06T06:02:14;40.80;;;14.80;;
59476;SDS011;73078;49.762;6.594;2024-03-06T06:04:41;42.20;;;13.88;;
59476;SDS011;73078;49.762;6.594;2024-03-06T06:07:07;31.73;;;13.27;;
59476;SDS011;73078;49.762;6.594;2024-03-06T06:09:33;42.65;;;13.20;;
59476;SDS011;73078;49.762;6.594;2024-03-06T06:11:59;24.33;;;13.02;;
59476;SDS011;73078;49.762;6.594;2024-03-06T06:14:25;46.08;;;12.95;;
59476;SDS011;73078;49.762;6.594;2024-03-06T06:16:54;42.75;;;12.82;;
59476;SDS011;73078;49.762;6.594;2024-03-06T06:19:20;52.53;;;13.38;;
59476;SDS011;73078;49.762;6.594;2024-03-06T06:21:46;78.00;;;14.10;;
59476;SDS011;73078;49.762;6.594;2024-03-06T06:24:13;103.95;;;15.93;;
59476;SDS011;73078;49.762;6.594;2024-03-06T06:26:39;36.20;;;12.18;;
59476;SDS011;73078;49.762;6.594;2024-03-06T06:29:05;46.13;;;12.70;;
59476;SDS011;73078;49.762;6.594;2024-03-06T06:31:31;22.85;;;11.90;;
59476;SDS011;73078;49.762;6.594;2024-03-06T06:33:57;43.88;;;13.15;;
59476;SDS011;73078;49.762;6.594;2024-03-06T06:36:23;39.55;;;11.63;;
59476;SDS011;73078;49.762;6.594;2024-03-06T06:38:49;78.13;;;12.93;;
59476;SDS011;73078;49.762;6.594;2024-03-06T06:41:15;42.90;;;12.80;;
59476;SDS011;73078;49.762;6.594;2024-03-06T06:43:41;63.63;;;13.38;;
59476;SDS011;73078;49.762;6.594;2024-03-06T06:46:08;86.63;;;14.88;;
59476;SDS011;73078;49.762;6.594;2024-03-06T06:48:34;86.15;;;12.73;;
59476;SDS011;73078;49.762;6.594;2024-03-06T06:51:00;70.80;;;13.60;;
59476;SDS011;73078;49.762;6.594;2024-03-06T06:53:28;56.30;;;12.85;;
59476;SDS011;73078;49.762;6.594;2024-03-06T06:55:54;48.08;;;11.73;;
59476;SDS011;73078;49.762;6.594;2024-03-06T06:58:20;23.60;;;10.45;;
59476;SDS011;73078;49.762;6.594;2024-03-06T07:00:46;50.45;;;11.15;;
59476;SDS011;73078;49.762;6.594;2024-03-06T07:03:11;73.10;;;12.88;;
59476;SDS011;73078;49.762;6.594;2024-03-06T07:05:37;42.72;;;11.27;;
59476;SDS011;73078;49.762;6.594;2024-03-06T07:08:04;45.38;;;10.65;;
59476;SDS011;73078;49.762;6.594;2024-03-06T07:10:30;41.47;;;10.55;;
59476;SDS011;73078;49.762;6.594;2024-03-06T07:12:56;36.60;;;10.50;;
59476;SDS011;73078;49.762;6.594;2024-03-06T07:15:22;64.70;;;12.02;;
59476;SDS011;73078;49.762;6.594;2024-03-06T07:17:48;17.52;;;8.80;;
59476;SDS011;73078;49.762;6.594;2024-03-06T07:20:14;46.15;;;11.23;;
59476;SDS011;73078;49.762;6.594;2024-03-06T07:22:40;41.00;;;12.10;;
59476;SDS011;73078;49.762;6.594;2024-03-06T07:25:06;85.35;;;13.95;;
59476;SDS011;73078;49.762;6.594;2024-03-06T07:27:32;47.35;;;13.57;;
59476;SDS011;73078;49.762;6.594;2024-03-06T07:29:58;46.30;;;12.32;;
59476;SDS011;73078;49.762;6.594;2024-03-06T07:32:24;61.67;;;12.48;;
59476;SDS011;73078;49.762;6.594;2024-03-06T07:34:50;60.75;;;12.63;;
59476;SDS011;73078;49.762;6.594;2024-03-06T07:37:16;60.60;;;12.88;;
59476;SDS011;73078;49.762;6.594;2024-03-06T07:39:42;59.17;;;13.15;;
59476;SDS011;73078;49.762;6.594;2024-03-06T07:42:08;40.97;;;11.63;;
59476;SDS011;73078;49.762;6.594;2024-03-06T07:44:35;50.80;;;12.50;;
59476;SDS011;73078;49.762;6.594;2024-03-06T07:47:01;72.80;;;12.65;;
59476;SDS011;73078;49.762;6.594;2024-03-06T07:49:28;38.28;;;9.77;;
59476;SDS011;73078;49.762;6.594;2024-03-06T07:51:53;93.53;;;12.60;;
59476;SDS011;73078;49.762;6.594;2024-03-06T07:54:19;83.97;;;12.68;;
59476;SDS011;73078;49.762;6.594;2024-03-06T07:56:46;90.13;;;12.70;;
59476;SDS011;73078;49.762;6.594;2024-03-06T07:59:13;24.33;;;10.52;;
59476;SDS011;73078;49.762;6.594;2024-03-06T08:01:40;43.50;;;11.82;;
59476;SDS011;73078;49.762;6.594;2024-03-06T08:04:06;24.98;;;11.30;;
59476;SDS011;73078;49.762;6.594;2024-03-06T08:06:32;45.28;;;11.45;;
59476;SDS011;73078;49.762;6.594;2024-03-06T08:08:58;71.18;;;13.45;;
59476;SDS011;73078;49.762;6.594;2024-03-06T08:11:27;38.38;;;11.93;;
59476;SDS011;73078;49.762;6.594;2024-03-06T08:13:59;37.22;;;12.00;;
59476;SDS011;73078;49.762;6.594;2024-03-06T08:16:26;55.72;;;12.57;;
59476;SDS011;73078;49.762;6.594;2024-03-06T08:18:53;31.45;;;12.35;;
59476;SDS011;73078;49.762;6.594;2024-03-06T08:21:19;24.17;;;11.38;;
59476;SDS011;73078;49.762;6.594;2024-03-06T08:23:45;26.95;;;11.35;;
59476;SDS011;73078;49.762;6.594;2024-03-06T08:26:12;60.05;;;11.20;;
59476;SDS011;73078;49.762;6.594;2024-03-06T08:28:38;19.95;;;9.85;;
59476;SDS011;73078;49.762;6.594;2024-03-06T08:31:04;19.35;;;10.13;;
59476;SDS011;73078;49.762;6.594;2024-03-06T08:33:30;37.97;;;10.93;;
59476;SDS011;73078;49.762;6.594;2024-03-06T08:35:56;56.47;;;10.65;;
59476;SDS011;73078;49.762;6.594;2024-03-06T08:38:23;22.10;;;10.77;;
59476;SDS011;73078;49.762;6.594;2024-03-06T08:40:49;18.00;;;11.02;;
59476;SDS011;73078;49.762;6.594;2024-03-06T08:43:15;39.15;;;13.13;;
59476;SDS011;73078;49.762;6.594;2024-03-06T08:45:41;20.90;;;11.55;;
59476;SDS011;73078;49.762;6.594;2024-03-06T08:48:08;16.88;;;10.27;;
59476;SDS011;73078;49.762;6.594;2024-03-06T08:50:34;20.35;;;11.32;;
59476;SDS011;73078;49.762;6.594;2024-03-06T08:53:00;20.83;;;11.45;;
59476;SDS011;73078;49.762;6.594;2024-03-06T08:55:29;20.42;;;11.10;;
59476;SDS011;73078;49.762;6.594;2024-03-06T08:57:55;28.63;;;11.45;;
59476;SDS011;73078;49.762;6.594;2024-03-06T09:00:21;20.17;;;11.05;;
59476;SDS011;73078;49.762;6.594;2024-03-06T09:02:47;26.55;;;11.82;;
59476;SDS011;73078;49.762;6.594;2024-03-06T09:05:14;36.90;;;11.82;;
59476;SDS011;73078;49.762;6.594;2024-03-06T09:07:40;32.92;;;12.23;;
59476;SDS011;73078;49.762;6.594;2024-03-06T09:10:10;40.90;;;11.55;;
59476;SDS011;73078;49.762;6.594;2024-03-06T09:12:36;20.30;;;11.75;;
59476;SDS011;73078;49.762;6.594;2024-03-06T09:15:02;20.95;;;11.73;;
59476;SDS011;73078;49.762;6.594;2024-03-06T09:17:28;20.48;;;12.52;;
59476;SDS011;73078;49.762;6.594;2024-03-06T09:19:54;21.75;;;11.48;;
59476;SDS011;73078;49.762;6.594;2024-03-06T09:22:21;19.48;;;12.00;;
59476;SDS011;73078;49.762;6.594;2024-03-06T09:24:47;30.33;;;12.23;;
59476;SDS011;73078;49.762;6.594;2024-03-06T09:27:14;21.00;;;10.88;;
59476;SDS011;73078;49.762;6.594;2024-03-06T09:29:40;18.42;;;11.25;;
59476;SDS011;73078;49.762;6.594;2024-03-06T09:32:06;18.92;;;11.18;;
59476;SDS011;73078;49.762;6.594;2024-03-06T09:34:32;24.73;;;10.75;;
59476;SDS011;73078;49.762;6.594;2024-03-06T09:36:58;19.00;;;11.00;;
59476;SDS011;73078;49.762;6.594;2024-03-06T09:39:24;19.55;;;12.48;;
59476;SDS011;73078;49.762;6.594;2024-03-06T09:41:50;17.65;;;10.85;;
59476;SDS011;73078;49.762;6.594;2024-03-06T09:44:16;20.15;;;11.63;;
59476;SDS011;73078;49.762;6.594;2024-03-06T09:46:46;17.63;;;11.60;;
59476;SDS011;73078;49.762;6.594;2024-03-06T09:49:13;18.60;;;10.75;;
59476;SDS011;73078;49.762;6.594;2024-03-06T09:51:40;19.75;;;10.90;;
59476;SDS011;73078;49.762;6.594;2024-03-06T09:56:35;18.25;;;12.02;;
59476;SDS011;73078;49.762;6.594;2024-03-06T09:59:01;18.90;;;12.48;;
59476;SDS011;73078;49.762;6.594;2024-03-06T10:01:28;18.92;;;11.55;;
59476;SDS011;73078;49.762;6.594;2024-03-06T10:03:55;19.45;;;11.80;;
59476;SDS011;73078;49.762;6.594;2024-03-06T10:06:21;18.02;;;11.50;;
59476;SDS011;73078;49.762;6.594;2024-03-06T10:08:47;18.65;;;12.10;;
59476;SDS011;73078;49.762;6.594;2024-03-06T10:11:14;17.85;;;11.70;;
59476;SDS011;73078;49.762;6.594;2024-03-06T10:13:40;19.15;;;11.70;;
59476;SDS011;73078;49.762;6.594;2024-03-06T10:16:06;17.58;;;11.55;;
59476;SDS011;73078;49.762;6.594;2024-03-06T10:18:36;17.45;;;11.38;;
59476;SDS011;73078;49.762;6.594;2024-03-06T10:21:04;17.63;;;11.60;;
59476;SDS011;73078;49.762;6.594;2024-03-06T10:23:34;19.30;;;11.02;;
59476;SDS011;73078;49.762;6.594;2024-03-06T10:26:00;16.55;;;10.73;;
59476;SDS011;73078;49.762;6.594;2024-03-06T10:28:26;18.02;;;11.18;;
59476;SDS011;73078;49.762;6.594;2024-03-06T10:31:02;19.10;;;11.98;;
59476;SDS011;73078;49.762;6.594;2024-03-06T10:33:28;16.55;;;11.63;;
59476;SDS011;73078;49.762;6.594;2024-03-06T10:35:54;17.73;;;12.00;;
59476;SDS011;73078;49.762;6.594;2024-03-06T10:38:20;16.80;;;10.95;;
59476;SDS011;73078;49.762;6.594;2024-03-06T10:40:47;18.33;;;11.45;;
59476;SDS011;73078;49.762;6.594;2024-03-06T10:43:17;26.85;;;11.50;;
59476;SDS011;73078;49.762;6.594;2024-03-06T10:45:47;23.33;;;10.55;;
59476;SDS011;73078;49.762;6.594;2024-03-06T10:50:39;24.05;;;11.95;;
59476;SDS011;73078;49.762;6.594;2024-03-06T10:53:15;26.50;;;12.52;;
59476;SDS011;73078;49.762;6.594;2024-03-06T10:55:44;31.13;;;13.00;;
59476;SDS011;73078;49.762;6.594;2024-03-06T10:58:11;26.48;;;11.27;;
59476;SDS011;73078;49.762;6.594;2024-03-06T11:00:41;21.83;;;12.55;;
59476;SDS011;73078;49.762;6.594;2024-03-06T11:03:08;19.90;;;12.45;;
59476;SDS011;73078;49.762;6.594;2024-03-06T11:05:38;20.08;;;12.85;;
59476;SDS011;73078;49.762;6.594;2024-03-06T11:08:08;18.58;;;12.23;;
59476;SDS011;73078;49.762;6.594;2024-03-06T11:13:04;20.00;;;12.93;;
59476;SDS011;73078;49.762;6.594;2024-03-06T11:15:34;17.77;;;12.23;;
59476;SDS011;73078;49.762;6.594;2024-03-06T11:20:45;20.20;;;12.32;;
59476;SDS011;73078;49.762;6.594;2024-03-06T11:23:11;19.95;;;11.98;;
59476;SDS011;73078;49.762;6.594;2024-03-06T11:28:15;20.08;;;12.45;;
59476;SDS011;73078;49.762;6.594;2024-03-06T11:30:46;18.77;;;12.07;;
59476;SDS011;73078;49.762;6.594;2024-03-06T11:33:15;18.13;;;11.75;;
59476;SDS011;73078;49.762;6.594;2024-03-06T11:35:41;17.60;;;11.93;;
59476;SDS011;73078;49.762;6.594;2024-03-06T11:38:16;17.17;;;11.55;;
59476;SDS011;73078;49.762;6.594;2024-03-06T11:40:43;15.05;;;10.50;;
59476;SDS011;73078;49.762;6.594;2024-03-06T11:43:22;17.10;;;10.57;;
59476;SDS011;73078;49.762;6.594;2024-03-06T11:45:49;15.73;;;10.65;;
59476;SDS011;73078;49.762;6.594;2024-03-06T11:48:15;14.55;;;10.55;;
59476;SDS011;73078;49.762;6.594;2024-03-06T11:50:46;15.52;;;10.60;;
59476;SDS011;73078;49.762;6.594;2024-03-06T11:53:15;14.27;;;9.63;;
59476;SDS011;73078;49.762;6.594;2024-03-06T11:55:42;14.15;;;9.65;;
59476;SDS011;73078;49.762;6.594;2024-03-06T11:58:08;13.20;;;8.98;;
59476;SDS011;73078;49.762;6.594;2024-03-06T12:00:36;13.40;;;8.90;;
59476;SDS011;73078;49.762;6.594;2024-03-06T12:03:03;13.75;;;9.00;;
59476;SDS011;73078;49.762;6.594;2024-03-06T12:05:30;13.43;;;9.52;;
59476;SDS011;73078;49.762;6.594;2024-03-06T12:07:56;14.20;;;8.52;;
59476;SDS011;73078;49.762;6.594;2024-03-06T12:10:22;11.00;;;7.88;;
59476;SDS011;73078;49.762;6.594;2024-03-06T12:12:48;10.52;;;7.47;;
59476;SDS011;73078;49.762;6.594;2024-03-06T12:15:14;10.63;;;7.20;;
59476;SDS011;73078;49.762;6.594;2024-03-06T12:17:45;8.98;;;6.63;;
59476;SDS011;73078;49.762;6.594;2024-03-06T12:20:11;10.77;;;6.97;;
59476;SDS011;73078;49.762;6.594;2024-03-06T12:22:50;7.95;;;6.40;;
59476;SDS011;73078;49.762;6.594;2024-03-06T12:25:19;8.13;;;5.85;;
59476;SDS011;73078;49.762;6.594;2024-03-06T12:27:46;8.15;;;6.07;;
59476;SDS011;73078;49.762;6.594;2024-03-06T12:30:12;9.57;;;6.93;;
59476;SDS011;73078;49.762;6.594;2024-03-06T12:32:39;8.23;;;6.07;;
59476;SDS011;73078;49.762;6.594;2024-03-06T12:35:05;10.25;;;6.80;;
59476;SDS011;73078;49.762;6.594;2024-03-06T12:37:32;10.68;;;6.60;;
59476;SDS011;73078;49.762;6.594;2024-03-06T12:39:58;7.32;;;5.70;;
59476;SDS011;73078;49.762;6.594;2024-03-06T12:42:24;8.57;;;5.43;;
59476;SDS011;73078;49.762;6.594;2024-03-06T12:44:50;9.75;;;5.85;;
59476;SDS011;73078;49.762;6.594;2024-03-06T12:47:17;7.95;;;5.85;;
59476;SDS011;73078;49.762;6.594;2024-03-06T12:49:42;9.10;;;6.05;;
59476;SDS011;73078;49.762;6.594;2024-03-06T12:52:08;9.27;;;6.45;;
59476;SDS011;73078;49.762;6.594;2024-03-06T12:54:34;8.65;;;5.80;;
59476;SDS011;73078;49.762;6.594;2024-03-06T12:57:00;7.45;;;5.80;;
59476;SDS011;73078;49.762;6.594;2024-03-06T12:59:27;9.73;;;6.55;;
59476;SDS011;73078;49.762;6.594;2024-03-06T13:01:53;10.90;;;6.05;;
59476;SDS011;73078;49.762;6.594;2024-03-06T13:04:19;9.00;;;5.88;;
59476;SDS011;73078;49.762;6.594;2024-03-06T13:06:45;8.55;;;6.07;;
59476;SDS011;73078;49.762;6.594;2024-03-06T13:09:12;9.05;;;6.18;;
59476;SDS011;73078;49.762;6.594;2024-03-06T13:11:38;9.85;;;5.90;;
59476;SDS011;73078;49.762;6.594;2024-03-06T13:14:04;9.02;;;5.93;;
59476;SDS011;73078;49.762;6.594;2024-03-06T13:16:30;7.50;;;5.75;;
59476;SDS011;73078;49.762;6.594;2024-03-06T13:18:56;8.63;;;5.68;;
59476;SDS011;73078;49.762;6.594;2024-03-06T13:21:22;9.40;;;6.03;;
59476;SDS011;73078;49.762;6.594;2024-03-06T13:23:48;9.23;;;5.57;;
59476;SDS011;73078;49.762;6.594;2024-03-06T13:26:14;10.45;;;5.88;;
59476;SDS011;73078;49.762;6.594;2024-03-06T13:28:41;7.03;;;5.30;;
59476;SDS011;73078;49.762;6.594;2024-03-06T13:31:07;8.98;;;5.82;;
59476;SDS011;73078;49.762;6.594;2024-03-06T13:33:33;8.35;;;5.28;;
59476;SDS011;73078;49.762;6.594;2024-03-06T13:35:59;8.38;;;5.78;;
59476;SDS011;73078;49.762;6.594;2024-03-06T13:38:26;9.50;;;5.43;;
59476;SDS011;73078;49.762;6.594;2024-03-06T13:40:53;11.35;;;6.07;;
59476;SDS011;73078;49.762;6.594;2024-03-06T13:43:19;7.90;;;5.57;;
59476;SDS011;73078;49.762;6.594;2024-03-06T13:45:49;7.68;;;5.55;;
59476;SDS011;73078;49.762;6.594;2024-03-06T13:48:15;6.53;;;4.90;;
59476;SDS011;73078;49.762;6.594;2024-03-06T13:50:45;7.68;;;5.68;;
59476;SDS011;73078;49.762;6.594;2024-03-06T13:55:37;8.98;;;5.40;;
59476;SDS011;73078;49.762;6.594;2024-03-06T13:58:03;8.98;;;5.70;;
59476;SDS011;73078;49.762;6.594;2024-03-06T14:00:29;11.50;;;7.53;;
59476;SDS011;73078;49.762;6.594;2024-03-06T14:02:55;9.65;;;6.50;;
59476;SDS011;73078;49.762;6.594;2024-03-06T14:05:21;8.35;;;6.13;;
59476;SDS011;73078;49.762;6.594;2024-03-06T14:07:50;11.50;;;7.30;;
59476;SDS011;73078;49.762;6.594;2024-03-06T14:10:16;9.75;;;6.43;;
59476;SDS011;73078;49.762;6.594;2024-03-06T14:12:46;8.27;;;6.00;;
59476;SDS011;73078;49.762;6.594;2024-03-06T14:15:16;13.18;;;5.80;;
59476;SDS011;73078;49.762;6.594;2024-03-06T14:17:43;10.98;;;6.13;;
59476;SDS011;73078;49.762;6.594;2024-03-06T14:20:10;8.32;;;6.00;;
59476;SDS011;73078;49.762;6.594;2024-03-06T14:22:37;10.63;;;6.47;;
59476;SDS011;73078;49.762;6.594;2024-03-06T14:25:03;9.85;;;5.85;;
59476;SDS011;73078;49.762;6.594;2024-03-06T14:27:30;8.57;;;5.85;;
59476;SDS011;73078;49.762;6.594;2024-03-06T14:29:55;8.15;;;5.95;;
59476;SDS011;73078;49.762;6.594;2024-03-06T14:32:21;8.93;;;5.50;;
59476;SDS011;73078;49.762;6.594;2024-03-06T14:34:47;9.18;;;5.60;;
59476;SDS011;73078;49.762;6.594;2024-03-06T14:37:14;12.23;;;6.18;;
59476;SDS011;73078;49.762;6.594;2024-03-06T14:39:40;9.50;;;5.45;;
59476;SDS011;73078;49.762;6.594;2024-03-06T14:42:06;6.25;;;4.85;;